sensor_id;sensor_type;location;lat;lon;timestamp;P1;durP1;ratioP1;P2;durP2;ratioP2
42124;SDS011;27787;44.594;11.046;2022-11-24T00:01:37;17.05;;;8.23;;
42124;SDS011;27787;44.594;11.046;2022-11-24T00:04:21;15.68;;;8.23;;
42124;SDS011;27787;44.594;11.046;2022-11-24T00:07:06;19.45;;;9.35;;
42124;SDS011;27787;44.594;11.046;2022-11-24T00:09:50;15.63;;;8.52;;
42124;SDS011;27787;44.594;11.046;2022-11-24T00:12:33;13.00;;;7.47;;
42124;SDS011;27787;44.594;11.046;2022-11-24T00:15:17;29.83;;;7.18;;
42124;SDS011;27787;44.594;11.046;2022-11-24T00:18:01;16.00;;;9.02;;
42124;SDS011;27787;44.594;11.046;2022-11-24T00:20:50;16.48;;;8.18;;
42124;SDS011;27787;44.594;11.046;2022-11-24T00:23:35;14.00;;;6.90;;
42124;SDS011;27787;44.594;11.046;2022-11-24T00:26:21;20.33;;;7.10;;
42124;SDS011;27787;44.594;11.046;2022-11-24T00:29:08;15.45;;;6.07;;
42124;SDS011;27787;44.594;11.046;2022-11-24T00:31:55;15.55;;;6.00;;
42124;SDS011;27787;44.594;11.046;2022-11-24T00:34:39;13.73;;;6.93;;
42124;SDS011;27787;44.594;11.046;2022-11-24T00:37:24;16.02;;;7.13;;
42124;SDS011;27787;44.594;11.046;2022-11-24T00:40:08;13.30;;;6.88;;
42124;SDS011;27787;44.594;11.046;2022-11-24T00:42:52;12.93;;;7.18;;
42124;SDS011;27787;44.594;11.046;2022-11-24T00:45:36;13.82;;;6.40;;
42124;SDS011;27787;44.594;11.046;2022-11-24T00:48:20;11.45;;;6.07;;
42124;SDS011;27787;44.594;11.046;2022-11-24T00:51:06;14.07;;;6.88;;
42124;SDS011;27787;44.594;11.046;2022-11-24T00:53:52;13.38;;;6.93;;
42124;SDS011;27787;44.594;11.046;2022-11-24T00:56:37;17.33;;;6.82;;
42124;SDS011;27787;44.594;11.046;2022-11-24T00:59:22;11.57;;;6.72;;
42124;SDS011;27787;44.594;11.046;2022-11-24T01:02:05;11.95;;;5.85;;
42124;SDS011;27787;44.594;11.046;2022-11-24T01:04:50;22.52;;;10.65;;
42124;SDS011;27787;44.594;11.046;2022-11-24T01:07:34;18.05;;;9.23;;
42124;SDS011;27787;44.594;11.046;2022-11-24T01:10:18;17.67;;;9.20;;
42124;SDS011;27787;44.594;11.046;2022-11-24T01:13:02;27.65;;;11.68;;
42124;SDS011;27787;44.594;11.046;2022-11-24T01:15:47;24.50;;;10.23;;
42124;SDS011;27787;44.594;11.046;2022-11-24T01:18:30;37.13;;;15.38;;
42124;SDS011;27787;44.594;11.046;2022-11-24T01:21:15;44.95;;;16.75;;
42124;SDS011;27787;44.594;11.046;2022-11-24T01:24:00;25.52;;;11.10;;
42124;SDS011;27787;44.594;11.046;2022-11-24T01:26:45;17.08;;;8.00;;
42124;SDS011;27787;44.594;11.046;2022-11-24T01:29:29;13.18;;;7.03;;
42124;SDS011;27787;44.594;11.046;2022-11-24T01:32:13;18.55;;;7.45;;
42124;SDS011;27787;44.594;11.046;2022-11-24T01:34:57;10.10;;;5.65;;
42124;SDS011;27787;44.594;11.046;2022-11-24T01:37:42;13.32;;;6.57;;
42124;SDS011;27787;44.594;11.046;2022-11-24T01:40:26;13.52;;;7.10;;
42124;SDS011;27787;44.594;11.046;2022-11-24T01:43:19;13.38;;;6.18;;
42124;SDS011;27787;44.594;11.046;2022-11-24T01:49:17;16.70;;;6.05;;
42124;SDS011;27787;44.594;11.046;2022-11-24T01:52:13;13.18;;;6.35;;
42124;SDS011;27787;44.594;11.046;2022-11-24T01:55:02;11.73;;;5.93;;
42124;SDS011;27787;44.594;11.046;2022-11-24T01:57:52;13.70;;;6.15;;
42124;SDS011;27787;44.594;11.046;2022-11-24T02:00:43;11.88;;;5.95;;
42124;SDS011;27787;44.594;11.046;2022-11-24T02:06:21;11.95;;;5.63;;
42124;SDS011;27787;44.594;11.046;2022-11-24T02:09:11;14.38;;;6.25;;
42124;SDS011;27787;44.594;11.046;2022-11-24T02:12:02;11.05;;;6.07;;
42124;SDS011;27787;44.594;11.046;2022-11-24T02:14:47;11.90;;;5.95;;
42124;SDS011;27787;44.594;11.046;2022-11-24T02:17:32;10.30;;;6.40;;
42124;SDS011;27787;44.594;11.046;2022-11-24T02:20:16;9.05;;;4.75;;
42124;SDS011;27787;44.594;11.046;2022-11-24T02:26:17;15.15;;;6.22;;
42124;SDS011;27787;44.594;11.046;2022-11-24T02:29:19;10.82;;;5.70;;
42124;SDS011;27787;44.594;11.046;2022-11-24T02:32:05;16.13;;;6.60;;
42124;SDS011;27787;44.594;11.046;2022-11-24T02:35:02;9.93;;;5.38;;
42124;SDS011;27787;44.594;11.046;2022-11-24T02:37:48;9.25;;;4.45;;
42124;SDS011;27787;44.594;11.046;2022-11-24T02:40:32;13.10;;;4.68;;
42124;SDS011;27787;44.594;11.046;2022-11-24T02:43:18;11.73;;;4.13;;
42124;SDS011;27787;44.594;11.046;2022-11-24T02:46:04;9.85;;;4.65;;
42124;SDS011;27787;44.594;11.046;2022-11-24T02:48:49;13.77;;;4.82;;
42124;SDS011;27787;44.594;11.046;2022-11-24T02:51:34;6.75;;;4.47;;
42124;SDS011;27787;44.594;11.046;2022-11-24T02:54:18;11.45;;;5.45;;
42124;SDS011;27787;44.594;11.046;2022-11-24T02:57:02;9.82;;;4.50;;
42124;SDS011;27787;44.594;11.046;2022-11-24T02:59:47;10.32;;;5.07;;
42124;SDS011;27787;44.594;11.046;2022-11-24T03:02:31;8.35;;;4.18;;
42124;SDS011;27787;44.594;11.046;2022-11-24T03:05:15;9.73;;;4.45;;
42124;SDS011;27787;44.594;11.046;2022-11-24T03:07:59;7.25;;;4.43;;
42124;SDS011;27787;44.594;11.046;2022-11-24T03:10:43;9.43;;;4.45;;
42124;SDS011;27787;44.594;11.046;2022-11-24T03:13:27;14.65;;;5.13;;
42124;SDS011;27787;44.594;11.046;2022-11-24T03:16:12;11.38;;;4.53;;
42124;SDS011;27787;44.594;11.046;2022-11-24T03:18:56;14.77;;;5.13;;
42124;SDS011;27787;44.594;11.046;2022-11-24T03:21:40;7.07;;;4.20;;
42124;SDS011;27787;44.594;11.046;2022-11-24T03:24:25;6.90;;;4.00;;
42124;SDS011;27787;44.594;11.046;2022-11-24T03:27:09;10.73;;;4.75;;
42124;SDS011;27787;44.594;11.046;2022-11-24T03:29:53;9.55;;;4.85;;
42124;SDS011;27787;44.594;11.046;2022-11-24T03:32:37;13.15;;;4.70;;
42124;SDS011;27787;44.594;11.046;2022-11-24T03:35:22;8.77;;;4.88;;
42124;SDS011;27787;44.594;11.046;2022-11-24T03:38:06;11.20;;;4.65;;
42124;SDS011;27787;44.594;11.046;2022-11-24T03:40:50;12.05;;;4.53;;
42124;SDS011;27787;44.594;11.046;2022-11-24T03:43:35;9.88;;;5.50;;
42124;SDS011;27787;44.594;11.046;2022-11-24T03:46:19;9.07;;;4.93;;
42124;SDS011;27787;44.594;11.046;2022-11-24T03:49:03;13.23;;;4.43;;
42124;SDS011;27787;44.594;11.046;2022-11-24T03:51:46;6.75;;;4.20;;
42124;SDS011;27787;44.594;11.046;2022-11-24T03:54:30;11.50;;;4.47;;
42124;SDS011;27787;44.594;11.046;2022-11-24T03:57:14;7.85;;;4.38;;
42124;SDS011;27787;44.594;11.046;2022-11-24T03:59:58;10.32;;;4.10;;
42124;SDS011;27787;44.594;11.046;2022-11-24T04:02:42;8.07;;;4.43;;
42124;SDS011;27787;44.594;11.046;2022-11-24T04:05:26;8.00;;;3.72;;
42124;SDS011;27787;44.594;11.046;2022-11-24T04:08:10;7.30;;;3.58;;
42124;SDS011;27787;44.594;11.046;2022-11-24T04:10:54;9.50;;;3.85;;
42124;SDS011;27787;44.594;11.046;2022-11-24T04:13:38;10.88;;;4.57;;
42124;SDS011;27787;44.594;11.046;2022-11-24T04:16:22;9.07;;;5.00;;
42124;SDS011;27787;44.594;11.046;2022-11-24T04:19:07;11.18;;;5.00;;
42124;SDS011;27787;44.594;11.046;2022-11-24T04:21:51;11.73;;;5.75;;
42124;SDS011;27787;44.594;11.046;2022-11-24T04:24:35;7.63;;;5.38;;
42124;SDS011;27787;44.594;11.046;2022-11-24T04:27:18;13.20;;;5.63;;
42124;SDS011;27787;44.594;11.046;2022-11-24T04:30:03;9.95;;;5.60;;
42124;SDS011;27787;44.594;11.046;2022-11-24T04:32:48;9.27;;;5.55;;
42124;SDS011;27787;44.594;11.046;2022-11-24T04:35:33;10.50;;;5.10;;
42124;SDS011;27787;44.594;11.046;2022-11-24T04:38:18;10.25;;;5.57;;
42124;SDS011;27787;44.594;11.046;2022-11-24T04:41:02;10.13;;;5.50;;
42124;SDS011;27787;44.594;11.046;2022-11-24T04:43:48;12.70;;;5.13;;
42124;SDS011;27787;44.594;11.046;2022-11-24T04:46:33;7.90;;;4.97;;
42124;SDS011;27787;44.594;11.046;2022-11-24T04:49:17;11.95;;;6.07;;
42124;SDS011;27787;44.594;11.046;2022-11-24T04:52:02;9.05;;;4.50;;
42124;SDS011;27787;44.594;11.046;2022-11-24T04:54:46;8.90;;;4.50;;
42124;SDS011;27787;44.594;11.046;2022-11-24T04:57:31;13.15;;;4.43;;
42124;SDS011;27787;44.594;11.046;2022-11-24T05:00:15;8.63;;;4.85;;
42124;SDS011;27787;44.594;11.046;2022-11-24T05:03:00;9.68;;;4.68;;
42124;SDS011;27787;44.594;11.046;2022-11-24T05:05:44;7.43;;;4.60;;
42124;SDS011;27787;44.594;11.046;2022-11-24T05:08:28;10.73;;;3.88;;
42124;SDS011;27787;44.594;11.046;2022-11-24T05:11:11;12.25;;;4.03;;
42124;SDS011;27787;44.594;11.046;2022-11-24T05:13:56;7.30;;;4.47;;
42124;SDS011;27787;44.594;11.046;2022-11-24T05:16:40;7.78;;;3.30;;
42124;SDS011;27787;44.594;11.046;2022-11-24T05:19:24;6.07;;;3.38;;
42124;SDS011;27787;44.594;11.046;2022-11-24T05:22:07;6.53;;;2.90;;
42124;SDS011;27787;44.594;11.046;2022-11-24T05:24:51;10.82;;;3.55;;
42124;SDS011;27787;44.594;11.046;2022-11-24T05:27:35;10.10;;;4.50;;
42124;SDS011;27787;44.594;11.046;2022-11-24T05:30:19;10.23;;;4.22;;
42124;SDS011;27787;44.594;11.046;2022-11-24T05:33:04;6.88;;;3.53;;
42124;SDS011;27787;44.594;11.046;2022-11-24T05:35:55;8.70;;;4.18;;
42124;SDS011;27787;44.594;11.046;2022-11-24T05:38:43;6.68;;;3.70;;
42124;SDS011;27787;44.594;11.046;2022-11-24T05:41:27;7.63;;;3.13;;
42124;SDS011;27787;44.594;11.046;2022-11-24T05:44:11;5.45;;;3.20;;
42124;SDS011;27787;44.594;11.046;2022-11-24T05:46:55;10.77;;;3.25;;
42124;SDS011;27787;44.594;11.046;2022-11-24T05:49:39;8.07;;;3.10;;
42124;SDS011;27787;44.594;11.046;2022-11-24T05:52:23;3.78;;;1.95;;
42124;SDS011;27787;44.594;11.046;2022-11-24T05:55:07;7.03;;;2.80;;
42124;SDS011;27787;44.594;11.046;2022-11-24T05:57:57;4.90;;;2.88;;
42124;SDS011;27787;44.594;11.046;2022-11-24T06:00:45;5.75;;;2.30;;
42124;SDS011;27787;44.594;11.046;2022-11-24T06:03:29;6.47;;;2.88;;
42124;SDS011;27787;44.594;11.046;2022-11-24T06:06:13;9.63;;;2.70;;
42124;SDS011;27787;44.594;11.046;2022-11-24T06:08:57;6.70;;;2.45;;
42124;SDS011;27787;44.594;11.046;2022-11-24T06:11:41;7.10;;;2.47;;
42124;SDS011;27787;44.594;11.046;2022-11-24T06:14:26;5.77;;;2.73;;
42124;SDS011;27787;44.594;11.046;2022-11-24T06:17:12;6.38;;;2.70;;
42124;SDS011;27787;44.594;11.046;2022-11-24T06:19:56;6.43;;;2.55;;
42124;SDS011;27787;44.594;11.046;2022-11-24T06:22:40;5.10;;;2.45;;
42124;SDS011;27787;44.594;11.046;2022-11-24T06:25:24;5.38;;;2.67;;
42124;SDS011;27787;44.594;11.046;2022-11-24T06:28:09;8.40;;;2.42;;
42124;SDS011;27787;44.594;11.046;2022-11-24T06:30:52;5.07;;;2.40;;
42124;SDS011;27787;44.594;11.046;2022-11-24T06:33:36;5.68;;;2.60;;
42124;SDS011;27787;44.594;11.046;2022-11-24T06:36:21;5.72;;;2.88;;
42124;SDS011;27787;44.594;11.046;2022-11-24T06:39:05;5.65;;;2.60;;
42124;SDS011;27787;44.594;11.046;2022-11-24T06:41:50;11.13;;;2.93;;
42124;SDS011;27787;44.594;11.046;2022-11-24T06:44:35;10.15;;;2.80;;
42124;SDS011;27787;44.594;11.046;2022-11-24T06:47:19;8.65;;;3.53;;
42124;SDS011;27787;44.594;11.046;2022-11-24T06:50:03;6.47;;;3.45;;
42124;SDS011;27787;44.594;11.046;2022-11-24T06:52:47;9.18;;;3.47;;
42124;SDS011;27787;44.594;11.046;2022-11-24T06:55:31;8.82;;;3.35;;
42124;SDS011;27787;44.594;11.046;2022-11-24T06:58:15;9.48;;;3.03;;
42124;SDS011;27787;44.594;11.046;2022-11-24T07:00:58;6.65;;;3.20;;
42124;SDS011;27787;44.594;11.046;2022-11-24T07:03:43;9.98;;;3.05;;
42124;SDS011;27787;44.594;11.046;2022-11-24T07:06:28;8.03;;;2.60;;
42124;SDS011;27787;44.594;11.046;2022-11-24T07:09:12;9.48;;;3.47;;
42124;SDS011;27787;44.594;11.046;2022-11-24T07:11:57;16.70;;;3.10;;
42124;SDS011;27787;44.594;11.046;2022-11-24T07:14:42;8.88;;;2.90;;
42124;SDS011;27787;44.594;11.046;2022-11-24T07:17:26;5.88;;;2.80;;
42124;SDS011;27787;44.594;11.046;2022-11-24T07:20:11;7.03;;;3.20;;
42124;SDS011;27787;44.594;11.046;2022-11-24T07:22:55;6.43;;;3.17;;
42124;SDS011;27787;44.594;11.046;2022-11-24T07:25:40;7.85;;;3.55;;
42124;SDS011;27787;44.594;11.046;2022-11-24T07:28:24;7.40;;;3.85;;
42124;SDS011;27787;44.594;11.046;2022-11-24T07:31:08;9.77;;;3.22;;
42124;SDS011;27787;44.594;11.046;2022-11-24T07:33:54;11.38;;;3.53;;
42124;SDS011;27787;44.594;11.046;2022-11-24T07:36:39;13.15;;;3.92;;
42124;SDS011;27787;44.594;11.046;2022-11-24T07:39:24;8.23;;;4.25;;
42124;SDS011;27787;44.594;11.046;2022-11-24T07:42:08;6.78;;;3.17;;
42124;SDS011;27787;44.594;11.046;2022-11-24T07:44:53;9.65;;;4.38;;
42124;SDS011;27787;44.594;11.046;2022-11-24T07:47:38;10.80;;;3.67;;
42124;SDS011;27787;44.594;11.046;2022-11-24T07:53:07;11.40;;;4.43;;
42124;SDS011;27787;44.594;11.046;2022-11-24T07:55:52;8.73;;;4.60;;
42124;SDS011;27787;44.594;11.046;2022-11-24T07:58:38;8.50;;;4.25;;
42124;SDS011;27787;44.594;11.046;2022-11-24T08:01:22;11.32;;;4.40;;
42124;SDS011;27787;44.594;11.046;2022-11-24T08:04:06;9.00;;;4.53;;
42124;SDS011;27787;44.594;11.046;2022-11-24T08:06:50;13.98;;;4.60;;
42124;SDS011;27787;44.594;11.046;2022-11-24T08:09:34;15.73;;;5.07;;
42124;SDS011;27787;44.594;11.046;2022-11-24T08:12:18;13.63;;;4.82;;
42124;SDS011;27787;44.594;11.046;2022-11-24T08:15:04;12.57;;;4.20;;
42124;SDS011;27787;44.594;11.046;2022-11-24T08:17:50;8.95;;;4.40;;
42124;SDS011;27787;44.594;11.046;2022-11-24T08:20:34;14.50;;;4.88;;
42124;SDS011;27787;44.594;11.046;2022-11-24T08:23:18;12.02;;;5.32;;
42124;SDS011;27787;44.594;11.046;2022-11-24T08:26:07;9.80;;;4.60;;
42124;SDS011;27787;44.594;11.046;2022-11-24T08:28:57;7.78;;;4.45;;
42124;SDS011;27787;44.594;11.046;2022-11-24T08:31:41;11.70;;;5.30;;
42124;SDS011;27787;44.594;11.046;2022-11-24T08:34:25;8.73;;;3.78;;
42124;SDS011;27787;44.594;11.046;2022-11-24T08:37:09;12.05;;;4.38;;
42124;SDS011;27787;44.594;11.046;2022-11-24T08:39:54;6.65;;;3.85;;
42124;SDS011;27787;44.594;11.046;2022-11-24T08:42:39;8.60;;;4.55;;
42124;SDS011;27787;44.594;11.046;2022-11-24T08:45:23;9.07;;;4.32;;
42124;SDS011;27787;44.594;11.046;2022-11-24T08:48:07;9.32;;;4.20;;
42124;SDS011;27787;44.594;11.046;2022-11-24T08:50:52;6.23;;;2.93;;
42124;SDS011;27787;44.594;11.046;2022-11-24T08:53:36;6.78;;;2.78;;
42124;SDS011;27787;44.594;11.046;2022-11-24T08:56:21;6.65;;;3.55;;
42124;SDS011;27787;44.594;11.046;2022-11-24T08:59:05;10.40;;;3.55;;
42124;SDS011;27787;44.594;11.046;2022-11-24T09:01:50;9.47;;;3.40;;
42124;SDS011;27787;44.594;11.046;2022-11-24T09:04:34;7.63;;;3.88;;
42124;SDS011;27787;44.594;11.046;2022-11-24T09:07:18;11.55;;;3.70;;
42124;SDS011;27787;44.594;11.046;2022-11-24T09:10:03;6.80;;;3.75;;
42124;SDS011;27787;44.594;11.046;2022-11-24T09:12:47;11.98;;;3.90;;
42124;SDS011;27787;44.594;11.046;2022-11-24T09:15:33;5.88;;;4.00;;
42124;SDS011;27787;44.594;11.046;2022-11-24T09:18:18;6.63;;;3.15;;
42124;SDS011;27787;44.594;11.046;2022-11-24T09:21:07;13.85;;;3.20;;
42124;SDS011;27787;44.594;11.046;2022-11-24T09:23:54;10.68;;;3.50;;
42124;SDS011;27787;44.594;11.046;2022-11-24T09:26:38;5.87;;;3.50;;
42124;SDS011;27787;44.594;11.046;2022-11-24T09:29:22;7.82;;;4.13;;
42124;SDS011;27787;44.594;11.046;2022-11-24T09:32:07;10.32;;;3.55;;
42124;SDS011;27787;44.594;11.046;2022-11-24T09:34:50;17.55;;;4.68;;
42124;SDS011;27787;44.594;11.046;2022-11-24T09:37:34;7.47;;;4.20;;
42124;SDS011;27787;44.594;11.046;2022-11-24T09:40:18;8.98;;;4.28;;
42124;SDS011;27787;44.594;11.046;2022-11-24T09:43:07;13.23;;;4.43;;
42124;SDS011;27787;44.594;11.046;2022-11-24T09:46:05;10.00;;;4.32;;
42124;SDS011;27787;44.594;11.046;2022-11-24T09:48:55;11.43;;;4.57;;
42124;SDS011;27787;44.594;11.046;2022-11-24T09:51:40;7.22;;;4.38;;
42124;SDS011;27787;44.594;11.046;2022-11-24T09:54:29;12.95;;;5.95;;
42124;SDS011;27787;44.594;11.046;2022-11-24T09:57:15;9.00;;;5.03;;
42124;SDS011;27787;44.594;11.046;2022-11-24T10:00:08;9.60;;;5.07;;
42124;SDS011;27787;44.594;11.046;2022-11-24T10:02:56;8.55;;;4.85;;
42124;SDS011;27787;44.594;11.046;2022-11-24T10:05:40;12.23;;;5.97;;
42124;SDS011;27787;44.594;11.046;2022-11-24T10:11:18;14.07;;;5.95;;
42124;SDS011;27787;44.594;11.046;2022-11-24T10:14:36;17.88;;;7.05;;
42124;SDS011;27787;44.594;11.046;2022-11-24T10:17:43;17.20;;;7.20;;
42124;SDS011;27787;44.594;11.046;2022-11-24T10:26:25;14.68;;;7.28;;
42124;SDS011;27787;44.594;11.046;2022-11-24T10:31:56;12.20;;;6.50;;
42124;SDS011;27787;44.594;11.046;2022-11-24T10:34:42;13.60;;;6.03;;
42124;SDS011;27787;44.594;11.046;2022-11-24T10:37:34;14.95;;;6.25;;
42124;SDS011;27787;44.594;11.046;2022-11-24T10:40:30;13.40;;;6.53;;
42124;SDS011;27787;44.594;11.046;2022-11-24T10:43:16;13.50;;;6.60;;
42124;SDS011;27787;44.594;11.046;2022-11-24T10:46:10;10.38;;;5.90;;
42124;SDS011;27787;44.594;11.046;2022-11-24T10:48:57;13.35;;;6.13;;
42124;SDS011;27787;44.594;11.046;2022-11-24T10:52:04;9.57;;;5.15;;
42124;SDS011;27787;44.594;11.046;2022-11-24T10:55:00;12.63;;;6.15;;
42124;SDS011;27787;44.594;11.046;2022-11-24T10:57:47;12.63;;;5.88;;
42124;SDS011;27787;44.594;11.046;2022-11-24T11:00:31;18.23;;;6.25;;
42124;SDS011;27787;44.594;11.046;2022-11-24T11:03:18;16.13;;;5.78;;
42124;SDS011;27787;44.594;11.046;2022-11-24T11:06:11;14.30;;;5.70;;
42124;SDS011;27787;44.594;11.046;2022-11-24T11:11:51;11.60;;;5.45;;
42124;SDS011;27787;44.594;11.046;2022-11-24T11:14:36;12.30;;;6.07;;
42124;SDS011;27787;44.594;11.046;2022-11-24T11:17:33;11.52;;;5.78;;
42124;SDS011;27787;44.594;11.046;2022-11-24T11:20:21;16.20;;;6.00;;
42124;SDS011;27787;44.594;11.046;2022-11-24T11:23:15;14.50;;;6.00;;
42124;SDS011;27787;44.594;11.046;2022-11-24T11:32:02;10.57;;;5.53;;
42124;SDS011;27787;44.594;11.046;2022-11-24T11:34:58;13.65;;;6.80;;
42124;SDS011;27787;44.594;11.046;2022-11-24T11:37:42;16.77;;;7.68;;
42124;SDS011;27787;44.594;11.046;2022-11-24T11:40:28;12.18;;;7.47;;
42124;SDS011;27787;44.594;11.046;2022-11-24T11:46:01;16.95;;;8.15;;
42124;SDS011;27787;44.594;11.046;2022-11-24T11:48:52;16.85;;;7.57;;
42124;SDS011;27787;44.594;11.046;2022-11-24T11:54:41;16.77;;;7.88;;
42124;SDS011;27787;44.594;11.046;2022-11-24T12:00:44;15.27;;;7.10;;
42124;SDS011;27787;44.594;11.046;2022-11-24T12:03:43;14.60;;;6.28;;
42124;SDS011;27787;44.594;11.046;2022-11-24T12:12:12;14.00;;;7.72;;
42124;SDS011;27787;44.594;11.046;2022-11-24T12:28:01;14.98;;;7.50;;
42124;SDS011;27787;44.594;11.046;2022-11-24T12:34:41;20.10;;;8.20;;
42124;SDS011;27787;44.594;11.046;2022-11-24T12:44:00;16.23;;;8.50;;
42124;SDS011;27787;44.594;11.046;2022-11-24T12:47:00;18.20;;;7.88;;
42124;SDS011;27787;44.594;11.046;2022-11-24T12:50:28;16.00;;;8.00;;
42124;SDS011;27787;44.594;11.046;2022-11-24T12:53:18;14.25;;;7.90;;
42124;SDS011;27787;44.594;11.046;2022-11-24T12:56:08;15.40;;;7.75;;
42124;SDS011;27787;44.594;11.046;2022-11-24T12:58:57;16.88;;;8.30;;
42124;SDS011;27787;44.594;11.046;2022-11-24T13:07:44;15.98;;;8.90;;
42124;SDS011;27787;44.594;11.046;2022-11-24T13:10:37;18.20;;;8.10;;
42124;SDS011;27787;44.594;11.046;2022-11-24T13:13:25;14.43;;;7.63;;
42124;SDS011;27787;44.594;11.046;2022-11-24T13:16:13;14.60;;;8.30;;
42124;SDS011;27787;44.594;11.046;2022-11-24T13:19:06;16.88;;;8.32;;
42124;SDS011;27787;44.594;11.046;2022-11-24T13:27:56;19.20;;;7.40;;
42124;SDS011;27787;44.594;11.046;2022-11-24T13:33:36;16.20;;;7.53;;
42124;SDS011;27787;44.594;11.046;2022-11-24T13:39:16;15.32;;;7.63;;
42124;SDS011;27787;44.594;11.046;2022-11-24T13:42:03;14.13;;;7.82;;
42124;SDS011;27787;44.594;11.046;2022-11-24T13:44:48;17.98;;;8.63;;
42124;SDS011;27787;44.594;11.046;2022-11-24T13:47:36;15.40;;;7.82;;
42124;SDS011;27787;44.594;11.046;2022-11-24T13:50:23;17.33;;;7.22;;
42124;SDS011;27787;44.594;11.046;2022-11-24T13:53:36;15.10;;;7.70;;
42124;SDS011;27787;44.594;11.046;2022-11-24T13:56:24;23.83;;;7.72;;
42124;SDS011;27787;44.594;11.046;2022-11-24T13:59:22;16.48;;;8.55;;
42124;SDS011;27787;44.594;11.046;2022-11-24T14:02:18;13.48;;;7.47;;
42124;SDS011;27787;44.594;11.046;2022-11-24T14:05:05;15.60;;;7.97;;
42124;SDS011;27787;44.594;11.046;2022-11-24T14:07:56;14.55;;;7.78;;
42124;SDS011;27787;44.594;11.046;2022-11-24T14:10:41;14.57;;;7.18;;
42124;SDS011;27787;44.594;11.046;2022-11-24T14:13:30;17.43;;;8.47;;
42124;SDS011;27787;44.594;11.046;2022-11-24T14:16:15;18.63;;;7.85;;
42124;SDS011;27787;44.594;11.046;2022-11-24T14:19:00;16.33;;;8.52;;
42124;SDS011;27787;44.594;11.046;2022-11-24T14:21:53;16.05;;;7.88;;
42124;SDS011;27787;44.594;11.046;2022-11-24T14:24:36;18.50;;;8.45;;
42124;SDS011;27787;44.594;11.046;2022-11-24T14:27:28;15.40;;;8.50;;
42124;SDS011;27787;44.594;11.046;2022-11-24T14:33:08;18.20;;;8.07;;
42124;SDS011;27787;44.594;11.046;2022-11-24T14:35:55;19.83;;;8.68;;
42124;SDS011;27787;44.594;11.046;2022-11-24T14:38:39;16.67;;;8.23;;
42124;SDS011;27787;44.594;11.046;2022-11-24T14:41:24;19.38;;;8.60;;
42124;SDS011;27787;44.594;11.046;2022-11-24T14:47:00;19.60;;;7.95;;
42124;SDS011;27787;44.594;11.046;2022-11-24T14:49:46;23.25;;;8.60;;
42124;SDS011;27787;44.594;11.046;2022-11-24T14:52:31;19.40;;;9.10;;
42124;SDS011;27787;44.594;11.046;2022-11-24T14:55:23;19.98;;;8.93;;
42124;SDS011;27787;44.594;11.046;2022-11-24T14:58:28;20.27;;;9.25;;
42124;SDS011;27787;44.594;11.046;2022-11-24T15:04:27;19.30;;;8.40;;
42124;SDS011;27787;44.594;11.046;2022-11-24T15:07:17;17.80;;;8.70;;
42124;SDS011;27787;44.594;11.046;2022-11-24T15:10:02;18.05;;;8.80;;
42124;SDS011;27787;44.594;11.046;2022-11-24T15:12:51;20.25;;;9.35;;
42124;SDS011;27787;44.594;11.046;2022-11-24T15:15:39;16.42;;;8.57;;
42124;SDS011;27787;44.594;11.046;2022-11-24T15:18:39;17.48;;;8.55;;
42124;SDS011;27787;44.594;11.046;2022-11-24T15:21:29;18.88;;;9.23;;
42124;SDS011;27787;44.594;11.046;2022-11-24T15:24:16;21.50;;;9.50;;
42124;SDS011;27787;44.594;11.046;2022-11-24T15:27:02;18.98;;;9.40;;
42124;SDS011;27787;44.594;11.046;2022-11-24T15:29:46;19.80;;;9.07;;
42124;SDS011;27787;44.594;11.046;2022-11-24T15:32:30;16.30;;;8.15;;
42124;SDS011;27787;44.594;11.046;2022-11-24T15:35:14;19.67;;;8.93;;
42124;SDS011;27787;44.594;11.046;2022-11-24T15:37:58;21.38;;;9.38;;
42124;SDS011;27787;44.594;11.046;2022-11-24T15:40:45;21.42;;;8.77;;
42124;SDS011;27787;44.594;11.046;2022-11-24T15:43:35;22.77;;;9.20;;
42124;SDS011;27787;44.594;11.046;2022-11-24T15:46:29;17.15;;;8.68;;
42124;SDS011;27787;44.594;11.046;2022-11-24T15:49:20;18.23;;;9.38;;
42124;SDS011;27787;44.594;11.046;2022-11-24T15:52:04;21.40;;;10.00;;
42124;SDS011;27787;44.594;11.046;2022-11-24T15:54:51;20.00;;;10.57;;
42124;SDS011;27787;44.594;11.046;2022-11-24T15:57:38;22.55;;;10.93;;
42124;SDS011;27787;44.594;11.046;2022-11-24T16:00:22;24.30;;;10.23;;
42124;SDS011;27787;44.594;11.046;2022-11-24T16:03:10;20.48;;;9.75;;
42124;SDS011;27787;44.594;11.046;2022-11-24T16:05:54;20.58;;;8.70;;
42124;SDS011;27787;44.594;11.046;2022-11-24T16:08:39;21.60;;;9.45;;
42124;SDS011;27787;44.594;11.046;2022-11-24T16:11:23;18.15;;;9.18;;
42124;SDS011;27787;44.594;11.046;2022-11-24T16:14:08;21.60;;;10.30;;
42124;SDS011;27787;44.594;11.046;2022-11-24T16:16:52;22.38;;;8.93;;
42124;SDS011;27787;44.594;11.046;2022-11-24T16:19:39;19.60;;;9.98;;
42124;SDS011;27787;44.594;11.046;2022-11-24T16:22:22;22.92;;;9.88;;
42124;SDS011;27787;44.594;11.046;2022-11-24T16:25:07;17.77;;;9.30;;
42124;SDS011;27787;44.594;11.046;2022-11-24T16:27:51;21.98;;;10.40;;
42124;SDS011;27787;44.594;11.046;2022-11-24T16:30:35;23.10;;;10.02;;
42124;SDS011;27787;44.594;11.046;2022-11-24T16:33:20;23.67;;;10.37;;
42124;SDS011;27787;44.594;11.046;2022-11-24T16:36:04;25.42;;;10.77;;
42124;SDS011;27787;44.594;11.046;2022-11-24T16:38:49;24.52;;;10.45;;
42124;SDS011;27787;44.594;11.046;2022-11-24T16:41:33;31.77;;;12.70;;
42124;SDS011;27787;44.594;11.046;2022-11-24T16:44:18;29.67;;;13.80;;
42124;SDS011;27787;44.594;11.046;2022-11-24T16:47:02;37.65;;;16.90;;
42124;SDS011;27787;44.594;11.046;2022-11-24T16:49:46;38.28;;;17.95;;
42124;SDS011;27787;44.594;11.046;2022-11-24T16:52:30;41.40;;;18.25;;
42124;SDS011;27787;44.594;11.046;2022-11-24T16:55:14;43.13;;;17.35;;
42124;SDS011;27787;44.594;11.046;2022-11-24T16:58:01;39.13;;;16.48;;
42124;SDS011;27787;44.594;11.046;2022-11-24T17:00:46;35.33;;;15.50;;
42124;SDS011;27787;44.594;11.046;2022-11-24T17:03:30;32.72;;;15.10;;
42124;SDS011;27787;44.594;11.046;2022-11-24T17:06:21;29.13;;;14.25;;
42124;SDS011;27787;44.594;11.046;2022-11-24T17:09:06;34.47;;;15.73;;
42124;SDS011;27787;44.594;11.046;2022-11-24T17:11:50;30.20;;;14.68;;
42124;SDS011;27787;44.594;11.046;2022-11-24T17:14:35;35.35;;;18.70;;
42124;SDS011;27787;44.594;11.046;2022-11-24T17:17:19;44.72;;;18.58;;
42124;SDS011;27787;44.594;11.046;2022-11-24T17:20:03;31.80;;;15.80;;
42124;SDS011;27787;44.594;11.046;2022-11-24T17:22:48;34.23;;;15.03;;
42124;SDS011;27787;44.594;11.046;2022-11-24T17:25:32;31.77;;;15.18;;
42124;SDS011;27787;44.594;11.046;2022-11-24T17:28:16;28.17;;;14.70;;
42124;SDS011;27787;44.594;11.046;2022-11-24T17:31:06;34.47;;;16.27;;
42124;SDS011;27787;44.594;11.046;2022-11-24T17:33:52;37.55;;;14.55;;
42124;SDS011;27787;44.594;11.046;2022-11-24T17:36:38;32.35;;;14.68;;
42124;SDS011;27787;44.594;11.046;2022-11-24T17:39:24;34.20;;;14.48;;
42124;SDS011;27787;44.594;11.046;2022-11-24T17:42:10;35.53;;;15.95;;
42124;SDS011;27787;44.594;11.046;2022-11-24T17:44:53;35.25;;;15.63;;
42124;SDS011;27787;44.594;11.046;2022-11-24T17:47:37;38.00;;;16.77;;
42124;SDS011;27787;44.594;11.046;2022-11-24T17:50:21;26.75;;;14.20;;
42124;SDS011;27787;44.594;11.046;2022-11-24T17:53:06;32.70;;;14.13;;